sensor_id;sensor_type;location;lat;lon;timestamp;P1;durP1;ratioP1;P2;durP2;ratioP2
65279;SDS011;51878;55.748;48.742;2023-04-25T00:05:00;4.35;;;2.17;;
65279;SDS011;51878;55.748;48.742;2023-04-25T00:10:05;4.35;;;2.22;;
65279;SDS011;51878;55.748;48.742;2023-04-25T00:15:08;7.63;;;2.55;;
65279;SDS011;51878;55.748;48.742;2023-04-25T00:20:11;6.50;;;2.38;;
65279;SDS011;51878;55.748;48.742;2023-04-25T00:25:13;4.47;;;2.58;;
65279;SDS011;51878;55.748;48.742;2023-04-25T00:30:16;5.28;;;2.50;;
65279;SDS011;51878;55.748;48.742;2023-04-25T00:35:19;5.43;;;2.72;;
65279;SDS011;51878;55.748;48.742;2023-04-25T00:40:24;6.40;;;2.55;;
65279;SDS011;51878;55.748;48.742;2023-04-25T00:45:27;6.07;;;2.70;;
65279;SDS011;51878;55.748;48.742;2023-04-25T00:50:33;6.22;;;2.60;;
65279;SDS011;51878;55.748;48.742;2023-04-25T00:55:36;7.78;;;3.08;;
65279;SDS011;51878;55.748;48.742;2023-04-25T01:00:41;7.63;;;3.10;;
65279;SDS011;51878;55.748;48.742;2023-04-25T01:05:43;11.15;;;4.05;;
65279;SDS011;51878;55.748;48.742;2023-04-25T01:10:46;16.08;;;4.35;;
65279;SDS011;51878;55.748;48.742;2023-04-25T01:15:48;8.73;;;3.70;;
65279;SDS011;51878;55.748;48.742;2023-04-25T01:20:51;13.20;;;3.90;;
65279;SDS011;51878;55.748;48.742;2023-04-25T01:25:54;6.47;;;3.20;;
65279;SDS011;51878;55.748;48.742;2023-04-25T01:30:56;6.13;;;2.60;;
65279;SDS011;51878;55.748;48.742;2023-04-25T01:35:59;12.88;;;4.07;;
65279;SDS011;51878;55.748;48.742;2023-04-25T01:41:01;12.55;;;3.90;;
65279;SDS011;51878;55.748;48.742;2023-04-25T01:46:04;5.55;;;3.00;;
65279;SDS011;51878;55.748;48.742;2023-04-25T01:51:06;5.18;;;3.33;;
65279;SDS011;51878;55.748;48.742;2023-04-25T01:56:08;7.25;;;3.03;;
65279;SDS011;51878;55.748;48.742;2023-04-25T02:01:11;5.93;;;2.78;;
65279;SDS011;51878;55.748;48.742;2023-04-25T02:06:16;6.40;;;2.80;;
65279;SDS011;51878;55.748;48.742;2023-04-25T02:11:18;7.40;;;3.05;;
65279;SDS011;51878;55.748;48.742;2023-04-25T02:16:21;4.38;;;3.13;;
65279;SDS011;51878;55.748;48.742;2023-04-25T02:21:25;3.67;;;2.28;;
65279;SDS011;51878;55.748;48.742;2023-04-25T02:26:28;6.82;;;2.67;;
65279;SDS011;51878;55.748;48.742;2023-04-25T02:31:30;12.23;;;3.20;;
65279;SDS011;51878;55.748;48.742;2023-04-25T02:36:32;6.68;;;2.85;;
65279;SDS011;51878;55.748;48.742;2023-04-25T02:41:39;4.88;;;2.10;;
65279;SDS011;51878;55.748;48.742;2023-04-25T02:46:41;8.10;;;2.85;;
65279;SDS011;51878;55.748;48.742;2023-04-25T02:51:43;2.47;;;2.00;;
65279;SDS011;51878;55.748;48.742;2023-04-25T02:56:46;6.55;;;2.67;;
65279;SDS011;51878;55.748;48.742;2023-04-25T03:01:48;6.18;;;2.33;;
65279;SDS011;51878;55.748;48.742;2023-04-25T03:06:50;5.10;;;2.58;;
65279;SDS011;51878;55.748;48.742;2023-04-25T03:11:53;10.98;;;2.53;;
65279;SDS011;51878;55.748;48.742;2023-04-25T03:16:55;7.65;;;2.70;;
65279;SDS011;51878;55.748;48.742;2023-04-25T03:21:57;6.50;;;2.70;;
65279;SDS011;51878;55.748;48.742;2023-04-25T03:26:59;6.88;;;2.33;;
65279;SDS011;51878;55.748;48.742;2023-04-25T03:32:08;6.75;;;2.50;;
65279;SDS011;51878;55.748;48.742;2023-04-25T03:37:10;5.72;;;2.17;;
65279;SDS011;51878;55.748;48.742;2023-04-25T03:42:12;8.50;;;2.08;;
65279;SDS011;51878;55.748;48.742;2023-04-25T03:47:15;3.80;;;2.00;;
65279;SDS011;51878;55.748;48.742;2023-04-25T03:52:17;7.78;;;2.47;;
65279;SDS011;51878;55.748;48.742;2023-04-25T03:57:20;6.47;;;2.33;;
65279;SDS011;51878;55.748;48.742;2023-04-25T04:02:22;5.57;;;2.42;;
65279;SDS011;51878;55.748;48.742;2023-04-25T04:07:24;5.03;;;2.20;;
65279;SDS011;51878;55.748;48.742;2023-04-25T04:12:26;5.68;;;2.58;;
65279;SDS011;51878;55.748;48.742;2023-04-25T04:17:33;7.18;;;2.25;;
65279;SDS011;51878;55.748;48.742;2023-04-25T04:22:36;8.85;;;2.08;;
65279;SDS011;51878;55.748;48.742;2023-04-25T04:27:40;19.30;;;2.65;;
65279;SDS011;51878;55.748;48.742;2023-04-25T04:32:42;4.35;;;1.80;;
65279;SDS011;51878;55.748;48.742;2023-04-25T04:37:45;10.05;;;2.15;;
65279;SDS011;51878;55.748;48.742;2023-04-25T04:42:47;4.22;;;2.05;;
65279;SDS011;51878;55.748;48.742;2023-04-25T04:47:52;3.30;;;2.28;;
65279;SDS011;51878;55.748;48.742;2023-04-25T04:52:56;8.43;;;2.45;;
65279;SDS011;51878;55.748;48.742;2023-04-25T04:57:59;2.97;;;1.88;;
65279;SDS011;51878;55.748;48.742;2023-04-25T05:03:01;6.57;;;2.70;;
65279;SDS011;51878;55.748;48.742;2023-04-25T05:08:03;4.22;;;2.10;;
65279;SDS011;51878;55.748;48.742;2023-04-25T05:13:08;5.60;;;2.20;;
65279;SDS011;51878;55.748;48.742;2023-04-25T05:18:10;6.68;;;1.80;;
65279;SDS011;51878;55.748;48.742;2023-04-25T05:23:12;4.55;;;1.75;;
65279;SDS011;51878;55.748;48.742;2023-04-25T05:28:15;4.97;;;1.90;;
65279;SDS011;51878;55.748;48.742;2023-04-25T05:33:17;9.50;;;2.20;;
65279;SDS011;51878;55.748;48.742;2023-04-25T05:38:19;7.55;;;2.28;;
65279;SDS011;51878;55.748;48.742;2023-04-25T05:43:21;4.88;;;1.90;;
65279;SDS011;51878;55.748;48.742;2023-04-25T05:48:24;5.40;;;2.00;;
65279;SDS011;51878;55.748;48.742;2023-04-25T05:53:30;3.72;;;1.70;;
65279;SDS011;51878;55.748;48.742;2023-04-25T05:58:32;5.55;;;1.90;;
65279;SDS011;51878;55.748;48.742;2023-04-25T06:03:35;8.68;;;2.03;;
65279;SDS011;51878;55.748;48.742;2023-04-25T06:08:40;5.28;;;1.60;;
65279;SDS011;51878;55.748;48.742;2023-04-25T06:13:43;7.45;;;2.33;;
65279;SDS011;51878;55.748;48.742;2023-04-25T06:18:45;16.73;;;1.92;;
65279;SDS011;51878;55.748;48.742;2023-04-25T06:23:47;6.32;;;1.80;;
65279;SDS011;51878;55.748;48.742;2023-04-25T06:28:52;5.13;;;2.17;;
65279;SDS011;51878;55.748;48.742;2023-04-25T06:33:54;9.32;;;2.35;;
65279;SDS011;51878;55.748;48.742;2023-04-25T06:39:02;7.82;;;2.13;;
65279;SDS011;51878;55.748;48.742;2023-04-25T06:44:07;5.20;;;1.90;;
65279;SDS011;51878;55.748;48.742;2023-04-25T06:49:09;9.27;;;2.55;;
65279;SDS011;51878;55.748;48.742;2023-04-25T06:54:14;14.77;;;2.58;;
65279;SDS011;51878;55.748;48.742;2023-04-25T06:59:16;8.43;;;1.95;;
65279;SDS011;51878;55.748;48.742;2023-04-25T07:04:21;13.00;;;2.30;;
65279;SDS011;51878;55.748;48.742;2023-04-25T07:09:23;21.02;;;2.38;;
65279;SDS011;51878;55.748;48.742;2023-04-25T07:14:25;5.03;;;1.98;;
65279;SDS011;51878;55.748;48.742;2023-04-25T07:19:28;10.82;;;2.38;;
65279;SDS011;51878;55.748;48.742;2023-04-25T07:24:31;11.30;;;2.10;;
65279;SDS011;51878;55.748;48.742;2023-04-25T07:29:33;17.98;;;2.20;;
65279;SDS011;51878;55.748;48.742;2023-04-25T07:34:38;5.43;;;1.92;;
65279;SDS011;51878;55.748;48.742;2023-04-25T07:39:41;5.45;;;1.95;;
65279;SDS011;51878;55.748;48.742;2023-04-25T07:44:43;5.75;;;1.80;;
65279;SDS011;51878;55.748;48.742;2023-04-25T07:49:45;6.00;;;2.28;;
65279;SDS011;51878;55.748;48.742;2023-04-25T07:54:48;8.43;;;1.98;;
65279;SDS011;51878;55.748;48.742;2023-04-25T07:59:51;8.43;;;2.13;;
65279;SDS011;51878;55.748;48.742;2023-04-25T08:04:55;12.45;;;2.00;;
65279;SDS011;51878;55.748;48.742;2023-04-25T08:09:58;8.80;;;2.20;;
65279;SDS011;51878;55.748;48.742;2023-04-25T08:15:00;10.45;;;2.38;;
65279;SDS011;51878;55.748;48.742;2023-04-25T08:20:05;8.85;;;1.77;;
65279;SDS011;51878;55.748;48.742;2023-04-25T08:25:13;6.63;;;1.60;;
65279;SDS011;51878;55.748;48.742;2023-04-25T08:30:15;7.97;;;1.83;;
65279;SDS011;51878;55.748;48.742;2023-04-25T08:35:20;13.27;;;2.35;;
65279;SDS011;51878;55.748;48.742;2023-04-25T08:40:22;16.02;;;2.35;;
65279;SDS011;51878;55.748;48.742;2023-04-25T08:45:33;14.52;;;2.33;;
65279;SDS011;51878;55.748;48.742;2023-04-25T08:50:39;6.95;;;1.85;;
65279;SDS011;51878;55.748;48.742;2023-04-25T08:55:46;7.68;;;2.40;;
65279;SDS011;51878;55.748;48.742;2023-04-25T09:00:51;8.38;;;2.10;;
65279;SDS011;51878;55.748;48.742;2023-04-25T09:05:54;11.30;;;2.90;;
65279;SDS011;51878;55.748;48.742;2023-04-25T09:10:57;5.43;;;1.90;;
65279;SDS011;51878;55.748;48.742;2023-04-25T09:15:59;9.40;;;2.90;;
65279;SDS011;51878;55.748;48.742;2023-04-25T09:26:15;8.05;;;3.22;;
65279;SDS011;51878;55.748;48.742;2023-04-25T09:31:22;8.70;;;2.90;;
65279;SDS011;51878;55.748;48.742;2023-04-25T09:36:30;7.60;;;2.92;;
65279;SDS011;51878;55.748;48.742;2023-04-25T09:41:33;10.70;;;2.45;;
65279;SDS011;51878;55.748;48.742;2023-04-25T09:46:40;9.52;;;2.72;;
65279;SDS011;51878;55.748;48.742;2023-04-25T09:51:53;6.78;;;2.75;;
65279;SDS011;51878;55.748;48.742;2023-04-25T09:56:56;11.52;;;2.70;;
65279;SDS011;51878;55.748;48.742;2023-04-25T10:02:05;8.98;;;2.55;;
65279;SDS011;51878;55.748;48.742;2023-04-25T10:07:09;6.78;;;2.15;;
65279;SDS011;51878;55.748;48.742;2023-04-25T10:12:13;14.60;;;2.60;;
65279;SDS011;51878;55.748;48.742;2023-04-25T10:17:16;31.05;;;2.90;;
65279;SDS011;51878;55.748;48.742;2023-04-25T10:22:22;11.93;;;2.70;;
65279;SDS011;51878;55.748;48.742;2023-04-25T10:27:30;7.57;;;2.53;;
65279;SDS011;51878;55.748;48.742;2023-04-25T10:32:33;4.78;;;2.20;;
65279;SDS011;51878;55.748;48.742;2023-04-25T10:37:35;7.97;;;2.47;;
65279;SDS011;51878;55.748;48.742;2023-04-25T10:42:40;10.07;;;3.15;;
65279;SDS011;51878;55.748;48.742;2023-04-25T10:47:43;13.70;;;2.75;;
65279;SDS011;51878;55.748;48.742;2023-04-25T10:52:46;9.55;;;2.10;;
65279;SDS011;51878;55.748;48.742;2023-04-25T10:57:48;11.50;;;2.10;;
65279;SDS011;51878;55.748;48.742;2023-04-25T11:02:52;11.68;;;2.42;;
65279;SDS011;51878;55.748;48.742;2023-04-25T11:07:59;9.68;;;2.72;;
65279;SDS011;51878;55.748;48.742;2023-04-25T11:13:08;10.52;;;2.40;;
65279;SDS011;51878;55.748;48.742;2023-04-25T11:18:10;10.82;;;2.63;;
65279;SDS011;51878;55.748;48.742;2023-04-25T11:23:17;17.77;;;2.97;;
65279;SDS011;51878;55.748;48.742;2023-04-25T11:28:23;24.77;;;2.95;;
65279;SDS011;51878;55.748;48.742;2023-04-25T11:33:26;14.10;;;2.50;;
65279;SDS011;51878;55.748;48.742;2023-04-25T11:38:31;11.05;;;2.63;;
65279;SDS011;51878;55.748;48.742;2023-04-25T11:43:33;8.45;;;1.90;;
65279;SDS011;51878;55.748;48.742;2023-04-25T11:48:38;3.28;;;1.90;;
65279;SDS011;51878;55.748;48.742;2023-04-25T11:53:41;5.00;;;1.92;;
65279;SDS011;51878;55.748;48.742;2023-04-25T11:58:58;7.57;;;2.22;;
65279;SDS011;51878;55.748;48.742;2023-04-25T12:04:16;7.40;;;2.05;;
65279;SDS011;51878;55.748;48.742;2023-04-25T12:09:21;9.02;;;2.10;;
65279;SDS011;51878;55.748;48.742;2023-04-25T12:14:34;3.00;;;1.70;;
65279;SDS011;51878;55.748;48.742;2023-04-25T12:19:37;4.35;;;1.65;;
65279;SDS011;51878;55.748;48.742;2023-04-25T12:24:44;5.20;;;2.15;;
65279;SDS011;51878;55.748;48.742;2023-04-25T12:29:50;12.63;;;2.22;;
65279;SDS011;51878;55.748;48.742;2023-04-25T12:34:54;16.08;;;3.60;;
65279;SDS011;51878;55.748;48.742;2023-04-25T12:39:56;28.15;;;3.85;;
65279;SDS011;51878;55.748;48.742;2023-04-25T12:44:58;4.70;;;2.05;;
65279;SDS011;51878;55.748;48.742;2023-04-25T12:50:00;19.63;;;3.10;;
65279;SDS011;51878;55.748;48.742;2023-04-25T12:55:04;4.28;;;2.30;;
65279;SDS011;51878;55.748;48.742;2023-04-25T13:00:07;13.85;;;2.67;;
65279;SDS011;51878;55.748;48.742;2023-04-25T13:05:11;14.77;;;2.63;;
65279;SDS011;51878;55.748;48.742;2023-04-25T13:10:14;4.78;;;2.50;;
65279;SDS011;51878;55.748;48.742;2023-04-25T13:15:16;10.20;;;2.45;;
65279;SDS011;51878;55.748;48.742;2023-04-25T13:20:18;5.88;;;2.53;;
65279;SDS011;51878;55.748;48.742;2023-04-25T13:25:23;7.75;;;2.80;;
65279;SDS011;51878;55.748;48.742;2023-04-25T13:30:26;5.65;;;2.70;;
65279;SDS011;51878;55.748;48.742;2023-04-25T13:35:29;11.18;;;3.22;;
65279;SDS011;51878;55.748;48.742;2023-04-25T13:40:32;9.80;;;2.40;;
65279;SDS011;51878;55.748;48.742;2023-04-25T13:45:34;7.22;;;2.70;;
65279;SDS011;51878;55.748;48.742;2023-04-25T13:50:36;8.25;;;3.60;;
65279;SDS011;51878;55.748;48.742;2023-04-25T13:55:38;15.32;;;3.90;;
65279;SDS011;51878;55.748;48.742;2023-04-25T14:00:41;18.95;;;10.07;;
65279;SDS011;51878;55.748;48.742;2023-04-25T14:05:45;8.93;;;2.50;;
65279;SDS011;51878;55.748;48.742;2023-04-25T14:10:47;8.68;;;2.88;;
65279;SDS011;51878;55.748;48.742;2023-04-25T14:15:49;6.45;;;3.03;;
65279;SDS011;51878;55.748;48.742;2023-04-25T14:20:52;11.43;;;3.58;;
65279;SDS011;51878;55.748;48.742;2023-04-25T14:25:54;13.88;;;3.55;;
65279;SDS011;51878;55.748;48.742;2023-04-25T14:30:56;7.68;;;3.20;;
65279;SDS011;51878;55.748;48.742;2023-04-25T14:35:58;4.40;;;3.22;;
65279;SDS011;51878;55.748;48.742;2023-04-25T14:41:01;12.45;;;3.50;;
65279;SDS011;51878;55.748;48.742;2023-04-25T14:46:03;7.68;;;3.47;;
65279;SDS011;51878;55.748;48.742;2023-04-25T14:51:05;10.10;;;3.72;;
65279;SDS011;51878;55.748;48.742;2023-04-25T14:56:07;10.45;;;3.75;;
65279;SDS011;51878;55.748;48.742;2023-04-25T15:01:10;6.50;;;3.42;;
65279;SDS011;51878;55.748;48.742;2023-04-25T15:06:13;5.55;;;3.85;;
65279;SDS011;51878;55.748;48.742;2023-04-25T15:11:15;8.60;;;3.70;;
65279;SDS011;51878;55.748;48.742;2023-04-25T15:16:17;8.93;;;3.47;;
65279;SDS011;51878;55.748;48.742;2023-04-25T15:21:20;8.93;;;3.03;;
65279;SDS011;51878;55.748;48.742;2023-04-25T15:26:23;5.15;;;2.90;;
65279;SDS011;51878;55.748;48.742;2023-04-25T15:31:25;5.70;;;3.05;;
65279;SDS011;51878;55.748;48.742;2023-04-25T15:36:27;8.07;;;3.80;;
65279;SDS011;51878;55.748;48.742;2023-04-25T15:41:29;9.98;;;3.75;;
65279;SDS011;51878;55.748;48.742;2023-04-25T15:46:31;7.22;;;3.42;;
65279;SDS011;51878;55.748;48.742;2023-04-25T15:51:34;3.50;;;3.20;;
65279;SDS011;51878;55.748;48.742;2023-04-25T15:56:36;6.90;;;3.75;;
65279;SDS011;51878;55.748;48.742;2023-04-25T16:01:38;8.20;;;3.67;;
65279;SDS011;51878;55.748;48.742;2023-04-25T16:06:41;5.95;;;3.85;;
65279;SDS011;51878;55.748;48.742;2023-04-25T16:11:43;9.13;;;4.00;;
65279;SDS011;51878;55.748;48.742;2023-04-25T16:16:45;5.63;;;3.70;;
65279;SDS011;51878;55.748;48.742;2023-04-25T16:21:47;6.78;;;3.80;;
65279;SDS011;51878;55.748;48.742;2023-04-25T16:26:50;7.18;;;4.50;;
65279;SDS011;51878;55.748;48.742;2023-04-25T16:31:52;5.85;;;4.03;;
65279;SDS011;51878;55.748;48.742;2023-04-25T16:36:55;9.88;;;4.57;;
65279;SDS011;51878;55.748;48.742;2023-04-25T16:41:58;6.97;;;4.63;;
65279;SDS011;51878;55.748;48.742;2023-04-25T16:47:00;10.25;;;4.55;;
65279;SDS011;51878;55.748;48.742;2023-04-25T16:52:03;7.65;;;4.47;;
65279;SDS011;51878;55.748;48.742;2023-04-25T16:57:05;8.38;;;4.35;;
65279;SDS011;51878;55.748;48.742;2023-04-25T17:02:11;9.40;;;5.60;;
65279;SDS011;51878;55.748;48.742;2023-04-25T17:07:14;10.00;;;5.57;;
65279;SDS011;51878;55.748;48.742;2023-04-25T17:12:17;9.73;;;5.50;;
65279;SDS011;51878;55.748;48.742;2023-04-25T17:17:20;11.43;;;6.57;;
65279;SDS011;51878;55.748;48.742;2023-04-25T17:22:22;10.10;;;6.85;;
65279;SDS011;51878;55.748;48.742;2023-04-25T17:27:25;10.20;;;7.38;;
65279;SDS011;51878;55.748;48.742;2023-04-25T17:32:27;11.18;;;8.02;;
65279;SDS011;51878;55.748;48.742;2023-04-25T17:37:29;17.95;;;7.63;;
65279;SDS011;51878;55.748;48.742;2023-04-25T17:42:32;13.07;;;8.48;;
65279;SDS011;51878;55.748;48.742;2023-04-25T17:47:34;14.05;;;8.95;;
65279;SDS011;51878;55.748;48.742;2023-04-25T17:52:36;17.17;;;10.88;;
65279;SDS011;51878;55.748;48.742;2023-04-25T17:57:39;12.25;;;9.35;;
65279;SDS011;51878;55.748;48.742;2023-04-25T18:02:41;15.50;;;10.25;;
65279;SDS011;51878;55.748;48.742;2023-04-25T18:07:43;17.58;;;10.43;;
65279;SDS011;51878;55.748;48.742;2023-04-25T18:12:45;14.73;;;9.07;;
65279;SDS011;51878;55.748;48.742;2023-04-25T18:17:53;16.60;;;8.65;;
65279;SDS011;51878;55.748;48.742;2023-04-25T18:22:57;12.32;;;7.78;;
65279;SDS011;51878;55.748;48.742;2023-04-25T18:28:02;14.60;;;7.72;;
65279;SDS011;51878;55.748;48.742;2023-04-25T18:33:04;15.10;;;8.00;;
65279;SDS011;51878;55.748;48.742;2023-04-25T18:38:06;10.30;;;7.30;;
65279;SDS011;51878;55.748;48.742;2023-04-25T18:43:09;14.70;;;7.55;;
65279;SDS011;51878;55.748;48.742;2023-04-25T18:48:19;9.80;;;7.55;;
65279;SDS011;51878;55.748;48.742;2023-04-25T18:53:22;9.32;;;6.57;;
65279;SDS011;51878;55.748;48.742;2023-04-25T18:58:24;11.85;;;6.68;;
65279;SDS011;51878;55.748;48.742;2023-04-25T19:03:27;11.10;;;7.00;;
65279;SDS011;51878;55.748;48.742;2023-04-25T19:08:29;11.50;;;6.75;;
65279;SDS011;51878;55.748;48.742;2023-04-25T19:13:31;23.20;;;7.50;;
65279;SDS011;51878;55.748;48.742;2023-04-25T19:18:35;15.82;;;7.88;;
65279;SDS011;51878;55.748;48.742;2023-04-25T19:23:37;10.38;;;7.07;;
65279;SDS011;51878;55.748;48.742;2023-04-25T19:28:41;13.40;;;8.93;;
65279;SDS011;51878;55.748;48.742;2023-04-25T19:34:12;12.90;;;10.20;;
65279;SDS011;51878;55.748;48.742;2023-04-25T19:39:44;16.40;;;11.98;;
65279;SDS011;51878;55.748;48.742;2023-04-25T19:44:55;22.75;;;13.68;;
65279;SDS011;51878;55.748;48.742;2023-04-25T19:50:00;20.73;;;14.60;;
65279;SDS011;51878;55.748;48.742;2023-04-25T19:55:07;28.35;;;16.55;;
65279;SDS011;51878;55.748;48.742;2023-04-25T20:00:14;28.67;;;18.33;;
65279;SDS011;51878;55.748;48.742;2023-04-25T20:05:20;31.90;;;18.85;;
65279;SDS011;51878;55.748;48.742;2023-04-25T20:10:22;24.77;;;18.83;;
65279;SDS011;51878;55.748;48.742;2023-04-25T20:15:24;25.13;;;18.50;;
65279;SDS011;51878;55.748;48.742;2023-04-25T20:20:27;27.58;;;19.23;;
65279;SDS011;51878;55.748;48.742;2023-04-25T20:25:29;25.88;;;17.98;;
65279;SDS011;51878;55.748;48.742;2023-04-25T20:30:31;22.45;;;17.38;;
65279;SDS011;51878;55.748;48.742;2023-04-25T20:35:33;20.65;;;16.63;;
65279;SDS011;51878;55.748;48.742;2023-04-25T20:40:35;23.58;;;18.27;;
65279;SDS011;51878;55.748;48.742;2023-04-25T20:45:37;22.35;;;18.90;;
65279;SDS011;51878;55.748;48.742;2023-04-25T20:50:40;26.58;;;20.33;;
65279;SDS011;51878;55.748;48.742;2023-04-25T20:55:42;31.25;;;21.33;;
65279;SDS011;51878;55.748;48.742;2023-04-25T21:00:44;25.88;;;20.42;;
65279;SDS011;51878;55.748;48.742;2023-04-25T21:05:48;26.88;;;21.70;;
65279;SDS011;51878;55.748;48.742;2023-04-25T21:10:51;29.60;;;22.17;;
65279;SDS011;51878;55.748;48.742;2023-04-25T21:15:56;30.77;;;22.83;;
65279;SDS011;51878;55.748;48.742;2023-04-25T21:20:58;30.55;;;23.85;;
65279;SDS011;51878;55.748;48.742;2023-04-25T21:26:01;32.97;;;25.15;;
65279;SDS011;51878;55.748;48.742;2023-04-25T21:31:11;37.78;;;26.80;;
65279;SDS011;51878;55.748;48.742;2023-04-25T21:36:13;37.65;;;26.65;;
65279;SDS011;51878;55.748;48.742;2023-04-25T21:41:15;40.08;;;26.50;;
65279;SDS011;51878;55.748;48.742;2023-04-25T21:46:17;35.28;;;25.40;;
65279;SDS011;51878;55.748;48.742;2023-04-25T21:51:24;35.13;;;25.35;;
65279;SDS011;51878;55.748;48.742;2023-04-25T21:56:26;35.05;;;26.60;;
65279;SDS011;51878;55.748;48.742;2023-04-25T22:01:28;37.42;;;26.08;;
65279;SDS011;51878;55.748;48.742;2023-04-25T22:06:30;38.38;;;26.50;;
65279;SDS011;51878;55.748;48.742;2023-04-25T22:11:32;40.40;;;27.63;;
65279;SDS011;51878;55.748;48.742;2023-04-25T22:16:35;34.38;;;23.67;;
65279;SDS011;51878;55.748;48.742;2023-04-25T22:21:38;42.80;;;25.67;;
65279;SDS011;51878;55.748;48.742;2023-04-25T22:26:40;37.05;;;24.77;;
65279;SDS011;51878;55.748;48.742;2023-04-25T22:31:43;33.53;;;22.88;;
65279;SDS011;51878;55.748;48.742;2023-04-25T22:36:45;28.73;;;19.88;;
65279;SDS011;51878;55.748;48.742;2023-04-25T22:41:47;25.63;;;18.42;;
65279;SDS011;51878;55.748;48.742;2023-04-25T22:46:49;27.40;;;16.92;;
65279;SDS011;51878;55.748;48.742;2023-04-25T22:51:51;20.65;;;15.70;;
65279;SDS011;51878;55.748;48.742;2023-04-25T22:56:56;21.55;;;14.15;;
65279;SDS011;51878;55.748;48.742;2023-04-25T23:01:58;21.85;;;15.10;;
65279;SDS011;51878;55.748;48.742;2023-04-25T23:07:01;22.63;;;16.98;;
65279;SDS011;51878;55.748;48.742;2023-04-25T23:12:03;18.80;;;11.77;;
65279;SDS011;51878;55.748;48.742;2023-04-25T23:17:05;15.00;;;8.30;;
65279;SDS011;51878;55.748;48.742;2023-04-25T23:22:08;11.40;;;7.13;;
65279;SDS011;51878;55.748;48.742;2023-04-25T23:27:10;10.80;;;7.90;;
65279;SDS011;51878;55.748;48.742;2023-04-25T23:32:12;17.92;;;10.82;;
65279;SDS011;51878;55.748;48.742;2023-04-25T23:37:14;22.92;;;16.88;;
65279;SDS011;51878;55.748;48.742;2023-04-25T23:42:17;28.30;;;20.15;;
65279;SDS011;51878;55.748;48.742;2023-04-25T23:47:19;27.80;;;18.98;;
65279;SDS011;51878;55.748;48.742;2023-04-25T23:52:22;29.90;;;19.60;;
65279;SDS011;51878;55.748;48.742;2023-04-25T23:57:24;26.80;;;18.83;;
